sensor_id;sensor_type;location;lat;lon;timestamp;P1;durP1;ratioP1;P2;durP2;ratioP2
18695;SDS011;22617;43.690;27.956;2022-09-16T00:01:08;5.78;;;3.22;;
18695;SDS011;22617;43.690;27.956;2022-09-16T00:06:17;6.47;;;3.40;;
18695;SDS011;22617;43.690;27.956;2022-09-16T00:11:21;8.45;;;4.00;;
18695;SDS011;22617;43.690;27.956;2022-09-16T00:16:26;7.07;;;4.00;;
18695;SDS011;22617;43.690;27.956;2022-09-16T00:21:32;9.73;;;4.10;;
18695;SDS011;22617;43.690;27.956;2022-09-16T00:26:35;9.73;;;4.15;;
18695;SDS011;22617;43.690;27.956;2022-09-16T00:31:40;7.15;;;3.25;;
18695;SDS011;22617;43.690;27.956;2022-09-16T00:36:45;8.43;;;4.22;;
18695;SDS011;22617;43.690;27.956;2022-09-16T00:41:48;11.93;;;5.63;;
18695;SDS011;22617;43.690;27.956;2022-09-16T00:46:52;12.25;;;4.82;;
18695;SDS011;22617;43.690;27.956;2022-09-16T00:52:00;8.32;;;4.50;;
18695;SDS011;22617;43.690;27.956;2022-09-16T00:57:06;7.15;;;4.10;;
18695;SDS011;22617;43.690;27.956;2022-09-16T01:02:13;7.03;;;3.65;;
18695;SDS011;22617;43.690;27.956;2022-09-16T01:07:25;12.10;;;3.58;;
18695;SDS011;22617;43.690;27.956;2022-09-16T01:12:33;10.82;;;3.53;;
18695;SDS011;22617;43.690;27.956;2022-09-16T01:17:45;6.10;;;3.05;;
18695;SDS011;22617;43.690;27.956;2022-09-16T01:23:21;6.55;;;3.00;;
18695;SDS011;22617;43.690;27.956;2022-09-16T01:28:43;4.60;;;2.80;;
18695;SDS011;22617;43.690;27.956;2022-09-16T01:34:06;6.82;;;3.05;;
18695;SDS011;22617;43.690;27.956;2022-09-16T01:39:21;7.43;;;3.38;;
18695;SDS011;22617;43.690;27.956;2022-09-16T01:44:33;5.53;;;2.90;;
18695;SDS011;22617;43.690;27.956;2022-09-16T01:49:50;6.38;;;3.47;;
18695;SDS011;22617;43.690;27.956;2022-09-16T01:55:01;3.55;;;2.58;;
18695;SDS011;22617;43.690;27.956;2022-09-16T02:00:07;5.97;;;2.78;;
18695;SDS011;22617;43.690;27.956;2022-09-16T02:05:17;8.18;;;3.28;;
18695;SDS011;22617;43.690;27.956;2022-09-16T02:10:26;9.40;;;2.50;;
18695;SDS011;22617;43.690;27.956;2022-09-16T02:15:32;6.90;;;2.85;;
18695;SDS011;22617;43.690;27.956;2022-09-16T02:20:39;5.50;;;2.65;;
18695;SDS011;22617;43.690;27.956;2022-09-16T02:25:45;8.32;;;2.90;;
18695;SDS011;22617;43.690;27.956;2022-09-16T02:30:51;9.52;;;3.33;;
18695;SDS011;22617;43.690;27.956;2022-09-16T02:35:59;6.55;;;2.90;;
18695;SDS011;22617;43.690;27.956;2022-09-16T02:41:06;8.73;;;3.17;;
18695;SDS011;22617;43.690;27.956;2022-09-16T02:46:18;4.57;;;2.60;;
18695;SDS011;22617;43.690;27.956;2022-09-16T02:51:31;9.63;;;3.20;;
18695;SDS011;22617;43.690;27.956;2022-09-16T02:56:40;9.30;;;3.63;;
18695;SDS011;22617;43.690;27.956;2022-09-16T03:01:45;7.57;;;3.13;;
18695;SDS011;22617;43.690;27.956;2022-09-16T03:06:50;9.02;;;3.05;;
18695;SDS011;22617;43.690;27.956;2022-09-16T03:17:41;13.68;;;3.05;;
18695;SDS011;22617;43.690;27.956;2022-09-16T03:23:03;9.60;;;2.80;;
18695;SDS011;22617;43.690;27.956;2022-09-16T03:28:17;6.72;;;2.30;;
18695;SDS011;22617;43.690;27.956;2022-09-16T03:33:25;10.80;;;2.28;;
18695;SDS011;22617;43.690;27.956;2022-09-16T03:38:35;7.55;;;2.33;;
18695;SDS011;22617;43.690;27.956;2022-09-16T03:43:50;8.68;;;2.22;;
18695;SDS011;22617;43.690;27.956;2022-09-16T03:48:55;7.65;;;2.80;;
18695;SDS011;22617;43.690;27.956;2022-09-16T03:54:00;13.45;;;2.50;;
18695;SDS011;22617;43.690;27.956;2022-09-16T03:59:03;5.00;;;2.30;;
18695;SDS011;22617;43.690;27.956;2022-09-16T04:04:07;5.80;;;2.33;;
18695;SDS011;22617;43.690;27.956;2022-09-16T04:09:13;11.27;;;3.45;;
18695;SDS011;22617;43.690;27.956;2022-09-16T04:14:17;13.00;;;3.95;;
18695;SDS011;22617;43.690;27.956;2022-09-16T04:19:21;10.93;;;3.75;;
18695;SDS011;22617;43.690;27.956;2022-09-16T04:24:26;8.95;;;3.13;;
18695;SDS011;22617;43.690;27.956;2022-09-16T04:29:29;14.07;;;4.00;;
18695;SDS011;22617;43.690;27.956;2022-09-16T04:34:33;13.65;;;3.25;;
18695;SDS011;22617;43.690;27.956;2022-09-16T04:39:38;5.38;;;2.40;;
18695;SDS011;22617;43.690;27.956;2022-09-16T04:44:41;9.00;;;2.50;;
18695;SDS011;22617;43.690;27.956;2022-09-16T04:49:45;8.35;;;2.30;;
18695;SDS011;22617;43.690;27.956;2022-09-16T04:54:50;10.20;;;2.38;;
18695;SDS011;22617;43.690;27.956;2022-09-16T04:59:53;5.90;;;2.03;;
18695;SDS011;22617;43.690;27.956;2022-09-16T05:04:57;8.75;;;2.35;;
18695;SDS011;22617;43.690;27.956;2022-09-16T05:10:02;8.75;;;1.85;;
18695;SDS011;22617;43.690;27.956;2022-09-16T05:15:06;5.65;;;2.10;;
18695;SDS011;22617;43.690;27.956;2022-09-16T05:20:11;8.02;;;2.33;;
18695;SDS011;22617;43.690;27.956;2022-09-16T05:25:16;7.53;;;2.10;;
18695;SDS011;22617;43.690;27.956;2022-09-16T05:30:19;10.57;;;2.15;;
18695;SDS011;22617;43.690;27.956;2022-09-16T05:35:27;12.38;;;2.85;;
18695;SDS011;22617;43.690;27.956;2022-09-16T05:40:32;12.07;;;2.35;;
18695;SDS011;22617;43.690;27.956;2022-09-16T05:45:35;8.30;;;2.65;;
18695;SDS011;22617;43.690;27.956;2022-09-16T05:50:39;12.20;;;2.47;;
18695;SDS011;22617;43.690;27.956;2022-09-16T05:55:44;12.48;;;2.45;;
18695;SDS011;22617;43.690;27.956;2022-09-16T06:00:57;11.50;;;2.50;;
18695;SDS011;22617;43.690;27.956;2022-09-16T06:06:01;12.07;;;2.55;;
18695;SDS011;22617;43.690;27.956;2022-09-16T06:11:07;17.48;;;2.20;;
18695;SDS011;22617;43.690;27.956;2022-09-16T06:16:12;8.88;;;2.08;;
18695;SDS011;22617;43.690;27.956;2022-09-16T06:21:16;13.93;;;2.00;;
18695;SDS011;22617;43.690;27.956;2022-09-16T06:26:22;16.38;;;3.75;;
18695;SDS011;22617;43.690;27.956;2022-09-16T06:31:27;14.60;;;3.13;;
18695;SDS011;22617;43.690;27.956;2022-09-16T06:36:32;9.75;;;2.05;;
18695;SDS011;22617;43.690;27.956;2022-09-16T06:41:41;16.45;;;2.80;;
18695;SDS011;22617;43.690;27.956;2022-09-16T06:46:45;14.75;;;2.47;;
18695;SDS011;22617;43.690;27.956;2022-09-16T06:51:49;14.88;;;2.30;;
18695;SDS011;22617;43.690;27.956;2022-09-16T06:56:54;14.77;;;3.22;;
18695;SDS011;22617;43.690;27.956;2022-09-16T07:02:00;17.92;;;3.13;;
18695;SDS011;22617;43.690;27.956;2022-09-16T07:07:04;18.75;;;2.70;;
18695;SDS011;22617;43.690;27.956;2022-09-16T07:12:12;15.02;;;2.60;;
18695;SDS011;22617;43.690;27.956;2022-09-16T07:17:20;15.68;;;3.30;;
18695;SDS011;22617;43.690;27.956;2022-09-16T07:22:29;14.52;;;2.03;;
18695;SDS011;22617;43.690;27.956;2022-09-16T07:27:34;14.95;;;2.10;;
18695;SDS011;22617;43.690;27.956;2022-09-16T07:32:38;19.45;;;2.75;;
18695;SDS011;22617;43.690;27.956;2022-09-16T07:37:41;19.17;;;2.78;;
18695;SDS011;22617;43.690;27.956;2022-09-16T07:42:46;19.23;;;3.05;;
18695;SDS011;22617;43.690;27.956;2022-09-16T07:47:50;18.90;;;2.70;;
18695;SDS011;22617;43.690;27.956;2022-09-16T07:52:53;16.92;;;3.67;;
18695;SDS011;22617;43.690;27.956;2022-09-16T07:57:59;19.33;;;2.20;;
18695;SDS011;22617;43.690;27.956;2022-09-16T08:03:02;13.80;;;2.30;;
18695;SDS011;22617;43.690;27.956;2022-09-16T08:08:07;12.05;;;2.30;;
18695;SDS011;22617;43.690;27.956;2022-09-16T08:13:11;16.30;;;2.83;;
18695;SDS011;22617;43.690;27.956;2022-09-16T08:18:15;13.80;;;2.10;;
18695;SDS011;22617;43.690;27.956;2022-09-16T08:23:19;11.07;;;2.28;;
18695;SDS011;22617;43.690;27.956;2022-09-16T08:28:24;13.52;;;1.95;;
18695;SDS011;22617;43.690;27.956;2022-09-16T08:33:48;13.60;;;1.88;;
18695;SDS011;22617;43.690;27.956;2022-09-16T08:38:53;26.10;;;2.65;;
18695;SDS011;22617;43.690;27.956;2022-09-16T08:44:01;16.10;;;2.50;;
18695;SDS011;22617;43.690;27.956;2022-09-16T08:49:15;14.45;;;1.85;;
18695;SDS011;22617;43.690;27.956;2022-09-16T08:54:25;10.25;;;1.23;;
18695;SDS011;22617;43.690;27.956;2022-09-16T08:59:35;9.73;;;1.33;;
18695;SDS011;22617;43.690;27.956;2022-09-16T09:04:43;15.02;;;1.85;;
18695;SDS011;22617;43.690;27.956;2022-09-16T09:09:49;6.00;;;1.45;;
18695;SDS011;22617;43.690;27.956;2022-09-16T09:20:40;8.07;;;1.23;;
18695;SDS011;22617;43.690;27.956;2022-09-16T09:25:51;8.88;;;1.23;;
18695;SDS011;22617;43.690;27.956;2022-09-16T09:31:03;11.82;;;1.30;;
18695;SDS011;22617;43.690;27.956;2022-09-16T09:36:15;11.00;;;1.25;;
18695;SDS011;22617;43.690;27.956;2022-09-16T09:41:31;15.88;;;1.30;;
18695;SDS011;22617;43.690;27.956;2022-09-16T09:46:40;11.80;;;1.35;;
18695;SDS011;22617;43.690;27.956;2022-09-16T09:51:50;6.45;;;1.10;;
18695;SDS011;22617;43.690;27.956;2022-09-16T09:57:00;10.48;;;1.98;;
18695;SDS011;22617;43.690;27.956;2022-09-16T10:02:11;8.50;;;1.48;;
18695;SDS011;22617;43.690;27.956;2022-09-16T10:07:19;5.40;;;1.42;;
18695;SDS011;22617;43.690;27.956;2022-09-16T10:12:26;5.82;;;0.90;;
18695;SDS011;22617;43.690;27.956;2022-09-16T10:17:33;6.57;;;1.00;;
18695;SDS011;22617;43.690;27.956;2022-09-16T10:22:37;6.45;;;1.65;;
18695;SDS011;22617;43.690;27.956;2022-09-16T10:27:41;5.45;;;1.33;;
18695;SDS011;22617;43.690;27.956;2022-09-16T10:32:47;11.68;;;1.80;;
18695;SDS011;22617;43.690;27.956;2022-09-16T10:37:54;11.63;;;1.48;;
18695;SDS011;22617;43.690;27.956;2022-09-16T10:43:00;8.35;;;1.10;;
18695;SDS011;22617;43.690;27.956;2022-09-16T10:48:10;4.88;;;1.58;;
18695;SDS011;22617;43.690;27.956;2022-09-16T10:53:20;7.38;;;1.10;;
18695;SDS011;22617;43.690;27.956;2022-09-16T10:58:25;6.80;;;1.52;;
18695;SDS011;22617;43.690;27.956;2022-09-16T11:03:36;5.45;;;0.88;;
18695;SDS011;22617;43.690;27.956;2022-09-16T11:09:00;5.47;;;1.05;;
18695;SDS011;22617;43.690;27.956;2022-09-16T11:14:11;8.20;;;1.20;;
18695;SDS011;22617;43.690;27.956;2022-09-16T11:19:26;4.88;;;1.45;;
18695;SDS011;22617;43.690;27.956;2022-09-16T11:24:46;7.30;;;1.13;;
18695;SDS011;22617;43.690;27.956;2022-09-16T11:30:03;6.15;;;1.23;;
18695;SDS011;22617;43.690;27.956;2022-09-16T11:35:23;5.63;;;1.05;;
18695;SDS011;22617;43.690;27.956;2022-09-16T11:40:43;4.93;;;1.10;;
18695;SDS011;22617;43.690;27.956;2022-09-16T11:45:50;7.85;;;1.00;;
18695;SDS011;22617;43.690;27.956;2022-09-16T11:51:04;6.38;;;0.98;;
18695;SDS011;22617;43.690;27.956;2022-09-16T11:56:16;5.70;;;0.90;;
18695;SDS011;22617;43.690;27.956;2022-09-16T12:01:26;4.10;;;0.95;;
18695;SDS011;22617;43.690;27.956;2022-09-16T12:06:37;4.95;;;0.80;;
18695;SDS011;22617;43.690;27.956;2022-09-16T12:11:50;6.25;;;1.10;;
18695;SDS011;22617;43.690;27.956;2022-09-16T12:17:00;4.63;;;0.80;;
18695;SDS011;22617;43.690;27.956;2022-09-16T12:22:09;4.00;;;0.82;;
18695;SDS011;22617;43.690;27.956;2022-09-16T12:27:24;5.05;;;0.93;;
18695;SDS011;22617;43.690;27.956;2022-09-16T12:32:40;4.65;;;0.70;;
18695;SDS011;22617;43.690;27.956;2022-09-16T12:37:52;4.88;;;1.00;;
18695;SDS011;22617;43.690;27.956;2022-09-16T12:43:10;3.20;;;0.90;;
18695;SDS011;22617;43.690;27.956;2022-09-16T12:48:34;2.05;;;0.60;;
18695;SDS011;22617;43.690;27.956;2022-09-16T12:54:15;6.00;;;1.05;;
18695;SDS011;22617;43.690;27.956;2022-09-16T12:59:45;2.08;;;0.80;;
18695;SDS011;22617;43.690;27.956;2022-09-16T13:05:10;2.60;;;0.90;;
18695;SDS011;22617;43.690;27.956;2022-09-16T13:10:31;7.25;;;0.88;;
18695;SDS011;22617;43.690;27.956;2022-09-16T13:15:58;7.60;;;1.00;;
18695;SDS011;22617;43.690;27.956;2022-09-16T13:21:05;5.38;;;0.80;;
18695;SDS011;22617;43.690;27.956;2022-09-16T13:26:27;5.15;;;1.38;;
18695;SDS011;22617;43.690;27.956;2022-09-16T13:31:44;5.43;;;1.48;;
18695;SDS011;22617;43.690;27.956;2022-09-16T13:36:50;4.68;;;1.23;;
18695;SDS011;22617;43.690;27.956;2022-09-16T13:41:54;4.63;;;1.10;;
18695;SDS011;22617;43.690;27.956;2022-09-16T13:47:15;7.95;;;1.23;;
18695;SDS011;22617;43.690;27.956;2022-09-16T13:52:20;5.18;;;1.00;;
18695;SDS011;22617;43.690;27.956;2022-09-16T13:57:52;5.43;;;1.20;;
18695;SDS011;22617;43.690;27.956;2022-09-16T14:08:42;6.30;;;1.73;;
18695;SDS011;22617;43.690;27.956;2022-09-16T14:13:54;5.18;;;1.10;;
18695;SDS011;22617;43.690;27.956;2022-09-16T14:19:10;11.38;;;1.35;;
18695;SDS011;22617;43.690;27.956;2022-09-16T14:24:23;9.68;;;1.13;;
18695;SDS011;22617;43.690;27.956;2022-09-16T14:29:27;4.78;;;1.30;;
18695;SDS011;22617;43.690;27.956;2022-09-16T14:34:32;7.57;;;1.48;;
18695;SDS011;22617;43.690;27.956;2022-09-16T14:39:37;6.85;;;1.52;;
18695;SDS011;22617;43.690;27.956;2022-09-16T14:44:45;7.57;;;1.45;;
18695;SDS011;22617;43.690;27.956;2022-09-16T14:49:53;7.10;;;1.40;;
18695;SDS011;22617;43.690;27.956;2022-09-16T14:54:59;5.90;;;1.10;;
18695;SDS011;22617;43.690;27.956;2022-09-16T15:00:06;7.25;;;1.15;;
18695;SDS011;22617;43.690;27.956;2022-09-16T15:05:19;6.40;;;1.20;;
18695;SDS011;22617;43.690;27.956;2022-09-16T15:10:26;7.10;;;1.30;;
18695;SDS011;22617;43.690;27.956;2022-09-16T15:15:53;5.50;;;0.95;;
18695;SDS011;22617;43.690;27.956;2022-09-16T15:21:03;11.52;;;2.50;;
18695;SDS011;22617;43.690;27.956;2022-09-16T15:26:12;5.20;;;1.00;;
18695;SDS011;22617;43.690;27.956;2022-09-16T15:31:26;4.20;;;1.30;;
18695;SDS011;22617;43.690;27.956;2022-09-16T15:36:34;7.90;;;1.40;;
18695;SDS011;22617;43.690;27.956;2022-09-16T15:41:40;5.43;;;1.27;;
18695;SDS011;22617;43.690;27.956;2022-09-16T15:46:46;6.50;;;1.15;;
18695;SDS011;22617;43.690;27.956;2022-09-16T15:51:52;12.95;;;2.30;;
18695;SDS011;22617;43.690;27.956;2022-09-16T15:56:58;5.22;;;1.20;;
18695;SDS011;22617;43.690;27.956;2022-09-16T16:02:17;8.95;;;1.65;;
18695;SDS011;22617;43.690;27.956;2022-09-16T16:07:40;6.35;;;1.35;;
18695;SDS011;22617;43.690;27.956;2022-09-16T16:12:46;7.70;;;1.80;;
18695;SDS011;22617;43.690;27.956;2022-09-16T16:17:53;8.95;;;1.30;;
18695;SDS011;22617;43.690;27.956;2022-09-16T16:23:01;5.55;;;1.45;;
18695;SDS011;22617;43.690;27.956;2022-09-16T16:28:04;5.90;;;1.10;;
18695;SDS011;22617;43.690;27.956;2022-09-16T16:33:10;6.97;;;1.60;;
18695;SDS011;22617;43.690;27.956;2022-09-16T16:38:13;16.58;;;2.13;;
18695;SDS011;22617;43.690;27.956;2022-09-16T16:43:17;15.77;;;2.33;;
18695;SDS011;22617;43.690;27.956;2022-09-16T16:48:22;9.88;;;1.80;;
18695;SDS011;22617;43.690;27.956;2022-09-16T16:53:26;5.72;;;1.80;;
18695;SDS011;22617;43.690;27.956;2022-09-16T16:58:30;7.68;;;1.63;;
18695;SDS011;22617;43.690;27.956;2022-09-16T17:03:35;4.30;;;1.58;;
18695;SDS011;22617;43.690;27.956;2022-09-16T17:08:39;8.32;;;2.13;;
18695;SDS011;22617;43.690;27.956;2022-09-16T17:13:43;6.63;;;1.67;;
18695;SDS011;22617;43.690;27.956;2022-09-16T17:18:49;8.18;;;2.20;;
18695;SDS011;22617;43.690;27.956;2022-09-16T17:23:53;6.80;;;2.20;;
18695;SDS011;22617;43.690;27.956;2022-09-16T17:28:57;10.38;;;2.70;;
18695;SDS011;22617;43.690;27.956;2022-09-16T17:34:14;11.15;;;2.90;;
18695;SDS011;22617;43.690;27.956;2022-09-16T17:39:18;8.40;;;2.90;;
18695;SDS011;22617;43.690;27.956;2022-09-16T17:44:23;8.90;;;2.95;;
18695;SDS011;22617;43.690;27.956;2022-09-16T17:49:29;9.32;;;3.08;;
18695;SDS011;22617;43.690;27.956;2022-09-16T17:54:33;9.85;;;2.85;;
18695;SDS011;22617;43.690;27.956;2022-09-16T17:59:37;5.38;;;2.40;;
18695;SDS011;22617;43.690;27.956;2022-09-16T18:04:42;6.63;;;2.00;;
18695;SDS011;22617;43.690;27.956;2022-09-16T18:09:45;6.82;;;2.28;;
18695;SDS011;22617;43.690;27.956;2022-09-16T18:14:49;8.23;;;2.33;;
18695;SDS011;22617;43.690;27.956;2022-09-16T18:19:54;10.63;;;1.90;;
18695;SDS011;22617;43.690;27.956;2022-09-16T18:24:58;3.92;;;2.13;;
18695;SDS011;22617;43.690;27.956;2022-09-16T18:30:02;6.72;;;2.13;;
18695;SDS011;22617;43.690;27.956;2022-09-16T18:35:07;7.15;;;1.80;;
18695;SDS011;22617;43.690;27.956;2022-09-16T18:40:12;5.32;;;2.30;;
18695;SDS011;22617;43.690;27.956;2022-09-16T18:45:16;8.10;;;2.10;;
18695;SDS011;22617;43.690;27.956;2022-09-16T18:50:21;10.82;;;2.30;;
18695;SDS011;22617;43.690;27.956;2022-09-16T18:55:25;9.50;;;3.13;;
18695;SDS011;22617;43.690;27.956;2022-09-16T19:00:29;7.50;;;2.80;;
18695;SDS011;22617;43.690;27.956;2022-09-16T19:05:34;9.38;;;2.50;;
18695;SDS011;22617;43.690;27.956;2022-09-16T19:10:37;6.55;;;2.10;;
18695;SDS011;22617;43.690;27.956;2022-09-16T19:15:41;9.93;;;2.35;;
18695;SDS011;22617;43.690;27.956;2022-09-16T19:20:46;9.02;;;2.25;;
18695;SDS011;22617;43.690;27.956;2022-09-16T19:25:49;8.30;;;2.38;;
18695;SDS011;22617;43.690;27.956;2022-09-16T19:30:53;8.57;;;2.00;;
18695;SDS011;22617;43.690;27.956;2022-09-16T19:36:10;7.10;;;2.40;;
18695;SDS011;22617;43.690;27.956;2022-09-16T19:41:15;6.65;;;2.35;;
18695;SDS011;22617;43.690;27.956;2022-09-16T19:46:20;6.30;;;2.50;;
18695;SDS011;22617;43.690;27.956;2022-09-16T19:51:26;6.60;;;2.05;;
18695;SDS011;22617;43.690;27.956;2022-09-16T19:56:30;10.25;;;2.80;;
18695;SDS011;22617;43.690;27.956;2022-09-16T20:01:34;12.18;;;2.70;;
18695;SDS011;22617;43.690;27.956;2022-09-16T20:06:40;4.63;;;2.67;;
18695;SDS011;22617;43.690;27.956;2022-09-16T20:11:45;6.22;;;2.40;;
18695;SDS011;22617;43.690;27.956;2022-09-16T20:16:49;13.15;;;2.67;;
18695;SDS011;22617;43.690;27.956;2022-09-16T20:21:54;7.50;;;2.35;;
18695;SDS011;22617;43.690;27.956;2022-09-16T20:26:58;8.30;;;3.00;;
18695;SDS011;22617;43.690;27.956;2022-09-16T20:32:02;7.85;;;2.58;;
18695;SDS011;22617;43.690;27.956;2022-09-16T20:37:07;4.88;;;2.42;;
18695;SDS011;22617;43.690;27.956;2022-09-16T20:42:10;5.88;;;2.10;;
18695;SDS011;22617;43.690;27.956;2022-09-16T20:47:14;7.70;;;2.58;;
18695;SDS011;22617;43.690;27.956;2022-09-16T20:52:19;8.35;;;3.28;;
18695;SDS011;22617;43.690;27.956;2022-09-16T20:57:22;8.98;;;4.13;;
18695;SDS011;22617;43.690;27.956;2022-09-16T21:02:27;11.52;;;4.05;;
18695;SDS011;22617;43.690;27.956;2022-09-16T21:07:31;10.85;;;3.58;;
18695;SDS011;22617;43.690;27.956;2022-09-16T21:12:35;9.10;;;3.50;;
18695;SDS011;22617;43.690;27.956;2022-09-16T21:17:38;7.55;;;3.65;;
18695;SDS011;22617;43.690;27.956;2022-09-16T21:22:43;9.48;;;3.97;;
18695;SDS011;22617;43.690;27.956;2022-09-16T21:27:46;6.95;;;3.25;;
18695;SDS011;22617;43.690;27.956;2022-09-16T21:32:50;7.22;;;2.90;;
18695;SDS011;22617;43.690;27.956;2022-09-16T21:37:55;10.82;;;3.30;;
18695;SDS011;22617;43.690;27.956;2022-09-16T21:42:59;6.93;;;2.78;;
18695;SDS011;22617;43.690;27.956;2022-09-16T21:48:03;13.05;;;3.15;;
18695;SDS011;22617;43.690;27.956;2022-09-16T21:53:07;7.78;;;3.00;;
18695;SDS011;22617;43.690;27.956;2022-09-16T21:58:11;8.88;;;3.20;;
18695;SDS011;22617;43.690;27.956;2022-09-16T22:03:15;9.32;;;3.25;;
18695;SDS011;22617;43.690;27.956;2022-09-16T22:08:20;8.65;;;3.30;;
18695;SDS011;22617;43.690;27.956;2022-09-16T22:13:23;8.07;;;2.90;;
18695;SDS011;22617;43.690;27.956;2022-09-16T22:18:27;14.18;;;4.13;;
18695;SDS011;22617;43.690;27.956;2022-09-16T22:23:34;5.78;;;3.60;;
18695;SDS011;22617;43.690;27.956;2022-09-16T22:28:39;11.48;;;4.32;;
18695;SDS011;22617;43.690;27.956;2022-09-16T22:33:43;14.23;;;4.75;;
18695;SDS011;22617;43.690;27.956;2022-09-16T22:38:50;8.75;;;3.95;;
18695;SDS011;22617;43.690;27.956;2022-09-16T22:43:54;7.88;;;3.83;;
18695;SDS011;22617;43.690;27.956;2022-09-16T22:48:58;9.95;;;3.70;;
18695;SDS011;22617;43.690;27.956;2022-09-16T22:54:04;11.02;;;3.15;;
18695;SDS011;22617;43.690;27.956;2022-09-16T22:59:11;9.35;;;2.75;;
18695;SDS011;22617;43.690;27.956;2022-09-16T23:04:18;9.95;;;2.80;;
18695;SDS011;22617;43.690;27.956;2022-09-16T23:09:24;12.27;;;3.20;;
18695;SDS011;22617;43.690;27.956;2022-09-16T23:14:27;9.90;;;2.47;;
18695;SDS011;22617;43.690;27.956;2022-09-16T23:19:31;9.35;;;2.83;;
18695;SDS011;22617;43.690;27.956;2022-09-16T23:24:35;8.27;;;2.63;;
18695;SDS011;22617;43.690;27.956;2022-09-16T23:29:39;8.85;;;3.28;;
18695;SDS011;22617;43.690;27.956;2022-09-16T23:34:43;15.77;;;4.30;;
18695;SDS011;22617;43.690;27.956;2022-09-16T23:39:48;8.70;;;3.28;;
18695;SDS011;22617;43.690;27.956;2022-09-16T23:44:51;14.13;;;3.63;;
18695;SDS011;22617;43.690;27.956;2022-09-16T23:49:55;13.43;;;3.95;;
18695;SDS011;22617;43.690;27.956;2022-09-16T23:55:00;15.23;;;4.38;;
